Grand Marais, MN

9:45 AM CST on February 24, 2017 (GMT -0600)
Grand Marais-Cook County

Weather History for KCKC - October, 2013

Change the Weather History Date:

Saturday, October 5, 2013

  Actual Average Record
Temperature  
Mean Temperature 42 °F -  
Max Temperature 44 °F 52 °F 66 °F (2011)
Min Temperature 39 °F 35 °F 19 °F (2003)
Degree Days  
Heating Degree Days 24    
Moisture  
Dew Point 37 °F    
Average Humidity 86    
Maximum Humidity 93    
Minimum Humidity 71    
Precipitation  
Precipitation 0.53 in - - ()
Sea Level Pressure  
Sea Level Pressure 30.03 in    
Wind  
Wind Speed 15 mph (NE)    
Max Wind Speed 22 mph    
Max Gust Speed 32 mph    
Visibility 6 miles    
Events Rain    
Averages and records for this station are not official NWS values.
T = Trace of Precipitation, MM = Missing Value Source: NWS Daily Summary

Daily Weather History Graph

Daily Weather History Graph

Search for Another Location

Airport or City:

Trip Planner

Search our weather history database for the weather conditions in past years. The results will help you decide how hot, cold, wet, or windy it might be!

Date:

Astronomy

Oct. 05, 2013 Rise Set
Actual Time 7:06 AM CDT 6:32 PM CDT
Civil Twilight 6:35 AM CDT 7:03 PM CDT
Nautical Twilight 5:59 AM CDT 7:38 PM CDT
Astronomical Twilight 5:23 AM CDT 8:14 PM CDT
Moon 7:51 AM CDT (10/5) 6:44 PM CDT (10/5)
Length of Visible Light 12h 27m
Length of Day
11h 25m
New Moon, 1% of the Moon is Illuminated
Oct 5
New Moon
Oct 11
First Quarter
Oct 18
Full
Oct 26
Last Quarter
Nov 3
New

Hourly Weather History & Observations

Time (CDT) Temp. Windchill Dew Point Humidity Pressure Visibility Wind Dir Wind Speed Gust Speed Precip Events Conditions
12:13 AM 44.6 °F 38.4 °F 35.6 °F 71% 30.17 in 10.0 mi NNE 12.7 mph 23.0 mph N/A   Overcast
12:34 AM 44.6 °F 38.8 °F 35.6 °F 71% 30.17 in 10.0 mi NE 11.5 mph 21.9 mph N/A   Overcast
12:54 AM 44.6 °F 38.1 °F 35.6 °F 71% 30.17 in 10.0 mi NE 13.8 mph 20.7 mph N/A   Overcast
1:13 AM 44.6 °F 38.1 °F 35.6 °F 71% 30.16 in 10.0 mi NE 13.8 mph 23.0 mph N/A   Overcast
1:34 AM 42.8 °F 35.8 °F 35.6 °F 76% 30.17 in 10.0 mi NE 13.8 mph 25.3 mph N/A Rain Light Rain
1:53 AM 42.8 °F 36.2 °F 37.4 °F 81% 30.16 in 10.0 mi NE 12.7 mph 18.4 mph 0.01 in Rain Rain
2:14 AM 42.8 °F 35.4 °F 37.4 °F 81% 30.15 in 10.0 mi NNE 15.0 mph - 0.02 in Rain Light Rain
2:34 AM 42.8 °F 36.2 °F 37.4 °F 81% 30.14 in 10.0 mi NNE 12.7 mph 20.7 mph 0.02 in   Light Drizzle
2:53 AM 42.8 °F 36.6 °F 37.4 °F 81% 30.14 in 10.0 mi NE 11.5 mph 20.7 mph 0.02 in   Overcast
3:14 AM 42.8 °F 35.8 °F 37.4 °F 81% 30.14 in 10.0 mi NE 13.8 mph 19.6 mph N/A   Overcast
3:33 AM 42.8 °F 35.4 °F 37.4 °F 81% 30.13 in 10.0 mi NE 15.0 mph 24.2 mph N/A   Drizzle
3:53 AM 42.8 °F 35.8 °F 37.4 °F 81% 30.12 in 10.0 mi NE 13.8 mph 25.3 mph N/A   Light Drizzle
4:14 AM 42.8 °F 35.1 °F 37.4 °F 81% 30.11 in 5.0 mi NE 16.1 mph 25.3 mph 0.01 in   Overcast
4:33 AM 42.8 °F 35.4 °F 37.4 °F 81% 30.12 in 4.0 mi NE 15.0 mph 20.7 mph 0.02 in Rain Light Rain
4:54 AM 41.0 °F 33.1 °F 37.4 °F 87% 30.12 in 7.0 mi NE 15.0 mph 19.6 mph 0.05 in Rain Rain
5:13 AM 41.0 °F 32.5 °F 37.4 °F 87% 30.11 in 7.0 mi NE 17.3 mph 27.6 mph 0.03 in Rain Rain
5:33 AM 41.0 °F 33.1 °F 37.4 °F 87% 30.09 in 7.0 mi NE 15.0 mph 23.0 mph 0.07 in Rain Rain
5:54 AM 41.0 °F 32.8 °F 37.4 °F 87% 30.09 in 7.0 mi NE 16.1 mph 23.0 mph 0.10 in Rain Rain
6:13 AM 41.0 °F 32.2 °F 37.4 °F 87% 30.08 in 7.0 mi NE 18.4 mph 24.2 mph 0.01 in Rain Rain
6:33 AM 41.0 °F 32.5 °F 37.4 °F 87% 30.07 in 7.0 mi NE 17.3 mph 24.2 mph 0.02 in Rain Rain
6:53 AM 41.0 °F 32.5 °F 37.4 °F 87% 30.08 in 10.0 mi NE 17.3 mph 25.3 mph 0.04 in Rain Rain
7:13 AM 41.0 °F 32.2 °F 37.4 °F 87% 30.07 in 10.0 mi NE 18.4 mph 24.2 mph 0.04 in Rain Rain
7:34 AM 41.0 °F 33.5 °F 37.4 °F 87% 30.08 in 10.0 mi NE 13.8 mph - 0.06 in Rain Rain
7:53 AM 39.2 °F 30.2 °F 37.4 °F 93% 30.08 in 10.0 mi NE 17.3 mph 23.0 mph 0.06 in   Light Drizzle
8:13 AM 39.2 °F 30.5 °F 35.6 °F 87% 30.08 in 7.0 mi NE 16.1 mph 24.2 mph N/A Rain Rain
8:34 AM 39.2 °F 29.8 °F 35.6 °F 87% 30.07 in 10.0 mi NE 18.4 mph 25.3 mph 0.01 in   Light Drizzle
8:53 AM 39.2 °F 29.6 °F 35.6 °F 87% 30.07 in 5.0 mi NE 19.6 mph 26.5 mph 0.01 in   Overcast
9:14 AM 39.2 °F 30.5 °F 35.6 °F 87% 30.08 in 5.0 mi NE 16.1 mph 25.3 mph N/A   Overcast
9:33 AM 39.2 °F 31.2 °F 35.6 °F 87% 30.08 in 2.0 mi NE 13.8 mph - N/A   Overcast
9:53 AM 39.2 °F 30.8 °F 37.4 °F 93% 30.07 in 2.5 mi NE 15.0 mph 23.0 mph 0.01 in Rain Rain
10:14 AM 39.2 °F 30.2 °F 37.4 °F 93% 30.07 in 3.0 mi NNE 17.3 mph 26.5 mph 0.01 in Rain Rain
10:33 AM 39.2 °F 29.8 °F 35.6 °F 87% 30.07 in 4.0 mi NE 18.4 mph 27.6 mph 0.01 in Rain Light Rain
10:54 AM 39.2 °F 30.2 °F 37.4 °F 93% 30.06 in 3.0 mi NE 17.3 mph 32.2 mph 0.02 in   Overcast
11:14 AM 39.2 °F 30.2 °F 37.4 °F 93% 30.07 in 2.5 mi NE 17.3 mph 27.6 mph N/A   Drizzle
11:33 AM 39.2 °F 30.5 °F 37.4 °F 93% 30.06 in 1.8 mi NE 16.1 mph 25.3 mph 0.01 in   Overcast
11:53 AM 39.2 °F 30.8 °F 37.4 °F 93% 30.05 in 2.5 mi NE 15.0 mph 25.3 mph 0.03 in Rain Rain
12:14 PM 39.2 °F 30.5 °F 37.4 °F 93% 30.05 in 2.0 mi NE 16.1 mph 28.8 mph N/A   Overcast
12:33 PM 39.2 °F 30.2 °F 37.4 °F 93% 30.05 in 4.0 mi NE 17.3 mph 26.5 mph 0.01 in   Light Drizzle
12:53 PM 41.0 °F 33.5 °F 37.4 °F 87% 30.05 in 10.0 mi NE 13.8 mph 25.3 mph 0.01 in   Overcast
1:14 PM 39.2 °F 30.8 °F 37.4 °F 93% 30.05 in 5.0 mi NE 15.0 mph 23.0 mph N/A   Overcast
1:33 PM 41.0 °F 32.5 °F 37.4 °F 87% 30.03 in 3.0 mi NE 17.3 mph 21.9 mph N/A   Drizzle
1:54 PM 41.0 °F 32.8 °F 37.4 °F 87% 30.01 in 3.0 mi NE 16.1 mph 19.6 mph N/A   Light Drizzle
2:13 PM 41.0 °F 32.2 °F 37.4 °F 87% 30.01 in 4.0 mi NE 18.4 mph 23.0 mph 0.02 in   Drizzle
2:34 PM 41.0 °F 33.5 °F 37.4 °F 87% 30.00 in 5.0 mi NE 13.8 mph 21.9 mph 0.03 in   Heavy Drizzle
2:53 PM 42.8 °F 35.8 °F 37.4 °F 81% 30.00 in 7.0 mi NE 13.8 mph 24.2 mph 0.04 in Rain Rain
3:13 PM 42.8 °F 34.5 °F 39.2 °F 87% 29.98 in 5.0 mi NE 18.4 mph 25.3 mph N/A   Drizzle
3:34 PM 42.8 °F 34.0 °F 37.4 °F 81% 29.97 in 5.0 mi NE 20.7 mph - N/A   Drizzle
3:53 PM 42.8 °F 36.2 °F 39.2 °F 87% 29.97 in 10.0 mi NE 12.7 mph 19.6 mph 0.01 in   Drizzle
4:13 PM 42.8 °F 36.2 °F 39.2 °F 87% 29.97 in 10.0 mi NE 12.7 mph 19.6 mph N/A   Light Drizzle
4:34 PM 42.8 °F 35.1 °F 39.2 °F 87% 29.96 in 7.0 mi ENE 16.1 mph 24.2 mph N/A   Drizzle
4:54 PM 42.8 °F 36.2 °F 39.2 °F 87% 29.96 in 5.0 mi ENE 12.7 mph 23.0 mph N/A   Overcast
5:13 PM 42.8 °F 34.8 °F 39.2 °F 87% 29.96 in 3.0 mi ENE 17.3 mph 23.0 mph N/A   Overcast
5:34 PM 41.0 °F 33.9 °F 37.4 °F 87% 29.96 in 2.5 mi ENE 12.7 mph 25.3 mph 0.01 in   Light Drizzle
5:53 PM 41.0 °F 32.8 °F 37.4 °F 87% 29.96 in 3.0 mi ENE 16.1 mph 21.9 mph 0.01 in   Drizzle
6:13 PM 41.0 °F 32.5 °F 37.4 °F 87% 29.95 in 2.0 mi ENE 17.3 mph 26.5 mph N/A   Overcast
6:34 PM 41.0 °F 31.9 °F 37.4 °F 87% 29.94 in 3.0 mi NE 19.6 mph 28.8 mph N/A   Overcast
6:53 PM 41.0 °F 31.9 °F 37.4 °F 87% 29.94 in 3.0 mi NE 19.6 mph 25.3 mph N/A   Overcast
7:13 PM 41.0 °F 31.4 °F 37.4 °F 87% 29.93 in 3.0 mi NE 21.9 mph 27.6 mph N/A   Overcast
7:34 PM 41.0 °F 32.8 °F 37.4 °F 87% 29.93 in 4.0 mi NE 16.1 mph 26.5 mph N/A   Overcast
7:54 PM 41.0 °F 32.2 °F 37.4 °F 87% 29.92 in 10.0 mi NE 18.4 mph 26.5 mph N/A   Overcast
8:14 PM 41.0 °F 32.2 °F 37.4 °F 87% 29.91 in 10.0 mi NE 18.4 mph 24.2 mph N/A   Overcast
8:34 PM 41.0 °F 32.5 °F 37.4 °F 87% 29.90 in 10.0 mi NE 17.3 mph 26.5 mph N/A   Overcast
8:53 PM 41.0 °F 33.1 °F 37.4 °F 87% 29.91 in 7.0 mi NE 15.0 mph 21.9 mph N/A   Overcast
9:13 PM 41.0 °F 32.5 °F 37.4 °F 87% 29.90 in 5.0 mi NE 17.3 mph 23.0 mph N/A   Overcast
9:33 PM 42.8 °F 35.1 °F 39.2 °F 87% 29.89 in 1.0 mi NE 16.1 mph 21.9 mph N/A   Overcast
9:53 PM 42.8 °F 35.1 °F 39.2 °F 87% 29.88 in 1.5 mi NE 16.1 mph 21.9 mph N/A   Overcast
10:13 PM 42.8 °F 35.1 °F 39.2 °F 87% 29.88 in 1.5 mi NE 16.1 mph 24.2 mph N/A   Overcast
10:33 PM 42.8 °F 36.6 °F 39.2 °F 87% 29.87 in 1.2 mi NE 11.5 mph 24.2 mph N/A   Overcast
10:53 PM 42.8 °F 34.8 °F 39.2 °F 87% 29.87 in 1.2 mi NE 17.3 mph 25.3 mph N/A   Overcast
11:14 PM 42.8 °F 36.2 °F 39.2 °F 87% 29.87 in 1.2 mi NE 12.7 mph - 0.01 in   Drizzle
11:34 PM 42.8 °F 36.2 °F 39.2 °F 87% 29.86 in 1.8 mi NE 12.7 mph 19.6 mph 0.03 in Rain Rain
11:53 PM 42.8 °F 35.8 °F 39.2 °F 87% 29.84 in 3.0 mi NNE 13.8 mph 21.9 mph 0.11 in Rain Rain